sensor_id;sensor_type;location;lat;lon;timestamp;temperature;humidity
22526;DHT22;11429;50.842;4.386;2023-02-28T00:01:23;3.60;99.90
22526;DHT22;11429;50.842;4.386;2023-02-28T00:03:49;3.50;99.90
22526;DHT22;11429;50.842;4.386;2023-02-28T00:06:15;3.40;99.90
22526;DHT22;11429;50.842;4.386;2023-02-28T00:08:41;3.30;99.90
22526;DHT22;11429;50.842;4.386;2023-02-28T00:11:09;3.10;99.90
22526;DHT22;11429;50.842;4.386;2023-02-28T00:13:37;3.00;99.90
22526;DHT22;11429;50.842;4.386;2023-02-28T00:16:09;3.10;99.90
22526;DHT22;11429;50.842;4.386;2023-02-28T00:18:36;3.30;99.90
22526;DHT22;11429;50.842;4.386;2023-02-28T00:21:02;3.30;99.90
22526;DHT22;11429;50.842;4.386;2023-02-28T00:23:28;3.00;99.90
22526;DHT22;11429;50.842;4.386;2023-02-28T00:25:54;3.30;99.90
22526;DHT22;11429;50.842;4.386;2023-02-28T00:28:20;3.30;99.90
22526;DHT22;11429;50.842;4.386;2023-02-28T00:30:46;3.20;99.90
22526;DHT22;11429;50.842;4.386;2023-02-28T00:33:11;3.20;99.90
22526;DHT22;11429;50.842;4.386;2023-02-28T00:35:37;3.20;99.90
22526;DHT22;11429;50.842;4.386;2023-02-28T00:38:03;3.00;99.90
22526;DHT22;11429;50.842;4.386;2023-02-28T00:40:29;2.90;99.90
22526;DHT22;11429;50.842;4.386;2023-02-28T00:42:54;2.90;99.90
22526;DHT22;11429;50.842;4.386;2023-02-28T00:45:20;2.90;99.90
22526;DHT22;11429;50.842;4.386;2023-02-28T00:47:46;3.20;99.90
22526;DHT22;11429;50.842;4.386;2023-02-28T00:50:18;3.20;99.90
22526;DHT22;11429;50.842;4.386;2023-02-28T00:52:45;3.10;99.90
22526;DHT22;11429;50.842;4.386;2023-02-28T00:55:11;3.00;99.90
22526;DHT22;11429;50.842;4.386;2023-02-28T00:57:37;2.80;99.90
22526;DHT22;11429;50.842;4.386;2023-02-28T01:00:03;3.00;99.90
22526;DHT22;11429;50.842;4.386;2023-02-28T01:02:30;3.10;99.90
22526;DHT22;11429;50.842;4.386;2023-02-28T01:04:55;3.10;99.90
22526;DHT22;11429;50.842;4.386;2023-02-28T01:07:23;3.10;99.90
22526;DHT22;11429;50.842;4.386;2023-02-28T01:09:48;3.10;99.90
22526;DHT22;11429;50.842;4.386;2023-02-28T01:12:14;3.10;99.90
22526;DHT22;11429;50.842;4.386;2023-02-28T01:14:41;3.10;99.90
22526;DHT22;11429;50.842;4.386;2023-02-28T01:17:07;3.10;99.90
22526;DHT22;11429;50.842;4.386;2023-02-28T01:19:33;2.90;99.90
22526;DHT22;11429;50.842;4.386;2023-02-28T01:22:02;2.50;99.90
22526;DHT22;11429;50.842;4.386;2023-02-28T01:24:28;2.50;99.90
22526;DHT22;11429;50.842;4.386;2023-02-28T01:26:53;2.70;99.90
22526;DHT22;11429;50.842;4.386;2023-02-28T01:29:19;2.90;99.90
22526;DHT22;11429;50.842;4.386;2023-02-28T01:31:47;3.10;99.90
22526;DHT22;11429;50.842;4.386;2023-02-28T01:34:13;3.10;99.90
22526;DHT22;11429;50.842;4.386;2023-02-28T01:36:39;3.10;99.90
22526;DHT22;11429;50.842;4.386;2023-02-28T01:39:04;2.80;99.90
22526;DHT22;11429;50.842;4.386;2023-02-28T01:41:32;2.90;99.90
22526;DHT22;11429;50.842;4.386;2023-02-28T01:44:07;2.90;99.90
22526;DHT22;11429;50.842;4.386;2023-02-28T01:46:34;2.80;99.90
22526;DHT22;11429;50.842;4.386;2023-02-28T01:49:11;3.00;99.90
22526;DHT22;11429;50.842;4.386;2023-02-28T01:51:45;2.90;99.90
22526;DHT22;11429;50.842;4.386;2023-02-28T01:54:21;2.90;99.90
22526;DHT22;11429;50.842;4.386;2023-02-28T01:56:54;2.90;99.90
22526;DHT22;11429;50.842;4.386;2023-02-28T01:59:47;2.70;99.90
22526;DHT22;11429;50.842;4.386;2023-02-28T02:02:19;2.50;99.90
22526;DHT22;11429;50.842;4.386;2023-02-28T02:04:51;2.60;99.90
22526;DHT22;11429;50.842;4.386;2023-02-28T02:07:18;2.60;99.90
22526;DHT22;11429;50.842;4.386;2023-02-28T02:09:44;2.60;99.90
22526;DHT22;11429;50.842;4.386;2023-02-28T02:15:09;2.60;99.90
22526;DHT22;11429;50.842;4.386;2023-02-28T02:17:42;2.50;99.90
22526;DHT22;11429;50.842;4.386;2023-02-28T02:20:43;2.50;99.90
22526;DHT22;11429;50.842;4.386;2023-02-28T02:26:42;2.30;99.90
22526;DHT22;11429;50.842;4.386;2023-02-28T02:29:20;2.50;99.90
22526;DHT22;11429;50.842;4.386;2023-02-28T02:32:15;2.50;99.90
22526;DHT22;11429;50.842;4.386;2023-02-28T02:35:01;2.40;99.90
22526;DHT22;11429;50.842;4.386;2023-02-28T02:43:16;2.20;99.90
22526;DHT22;11429;50.842;4.386;2023-02-28T02:45:45;2.00;99.90
22526;DHT22;11429;50.842;4.386;2023-02-28T02:48:17;1.90;99.90
22526;DHT22;11429;50.842;4.386;2023-02-28T02:50:50;2.30;99.90
22526;DHT22;11429;50.842;4.386;2023-02-28T02:53:19;2.40;99.90
22526;DHT22;11429;50.842;4.386;2023-02-28T02:55:49;2.50;99.90
22526;DHT22;11429;50.842;4.386;2023-02-28T02:58:24;2.60;99.90
22526;DHT22;11429;50.842;4.386;2023-02-28T03:00:53;2.40;99.90
22526;DHT22;11429;50.842;4.386;2023-02-28T03:03:20;2.40;99.90
22526;DHT22;11429;50.842;4.386;2023-02-28T03:05:56;2.50;99.90
22526;DHT22;11429;50.842;4.386;2023-02-28T03:08:22;2.40;99.90
22526;DHT22;11429;50.842;4.386;2023-02-28T03:10:51;2.30;99.90
22526;DHT22;11429;50.842;4.386;2023-02-28T03:21:24;2.00;99.90
22526;DHT22;11429;50.842;4.386;2023-02-28T03:24:27;1.90;99.90
22526;DHT22;11429;50.842;4.386;2023-02-28T03:27:13;2.00;99.90
22526;DHT22;11429;50.842;4.386;2023-02-28T03:29:47;1.90;99.90
22526;DHT22;11429;50.842;4.386;2023-02-28T03:32:27;1.70;99.90
22526;DHT22;11429;50.842;4.386;2023-02-28T03:37:38;1.50;99.90
22526;DHT22;11429;50.842;4.386;2023-02-28T03:40:11;1.50;99.90
22526;DHT22;11429;50.842;4.386;2023-02-28T03:42:41;1.60;99.90
22526;DHT22;11429;50.842;4.386;2023-02-28T03:45:13;1.50;99.90
22526;DHT22;11429;50.842;4.386;2023-02-28T03:50:22;1.70;99.90
22526;DHT22;11429;50.842;4.386;2023-02-28T03:52:56;1.80;99.90
22526;DHT22;11429;50.842;4.386;2023-02-28T03:55:31;2.00;99.90
22526;DHT22;11429;50.842;4.386;2023-02-28T04:00:47;1.90;99.90
22526;DHT22;11429;50.842;4.386;2023-02-28T04:03:14;1.70;99.90
22526;DHT22;11429;50.842;4.386;2023-02-28T04:05:52;2.00;99.90
22526;DHT22;11429;50.842;4.386;2023-02-28T04:08:19;1.90;99.90
22526;DHT22;11429;50.842;4.386;2023-02-28T04:10:53;1.80;99.90
22526;DHT22;11429;50.842;4.386;2023-02-28T04:13:20;1.90;99.90
22526;DHT22;11429;50.842;4.386;2023-02-28T04:15:46;1.80;99.90
22526;DHT22;11429;50.842;4.386;2023-02-28T04:18:11;1.80;99.90
22526;DHT22;11429;50.842;4.386;2023-02-28T04:20:37;1.80;99.90
22526;DHT22;11429;50.842;4.386;2023-02-28T04:23:02;1.60;99.90
22526;DHT22;11429;50.842;4.386;2023-02-28T04:25:28;1.50;99.90
22526;DHT22;11429;50.842;4.386;2023-02-28T04:27:54;1.70;99.90
22526;DHT22;11429;50.842;4.386;2023-02-28T04:30:20;2.00;99.90
22526;DHT22;11429;50.842;4.386;2023-02-28T04:32:45;2.30;99.90
22526;DHT22;11429;50.842;4.386;2023-02-28T04:35:11;2.30;99.90
22526;DHT22;11429;50.842;4.386;2023-02-28T04:37:36;2.10;99.90
22526;DHT22;11429;50.842;4.386;2023-02-28T04:40:03;2.20;99.90
22526;DHT22;11429;50.842;4.386;2023-02-28T04:42:29;2.10;99.90
22526;DHT22;11429;50.842;4.386;2023-02-28T04:45:02;2.10;99.90
22526;DHT22;11429;50.842;4.386;2023-02-28T04:47:28;2.30;99.90
22526;DHT22;11429;50.842;4.386;2023-02-28T04:49:54;2.30;99.90
22526;DHT22;11429;50.842;4.386;2023-02-28T04:52:19;2.30;99.90
22526;DHT22;11429;50.842;4.386;2023-02-28T04:54:45;2.10;99.90
22526;DHT22;11429;50.842;4.386;2023-02-28T04:57:11;2.10;99.90
22526;DHT22;11429;50.842;4.386;2023-02-28T04:59:36;1.80;99.90
22526;DHT22;11429;50.842;4.386;2023-02-28T05:02:02;1.80;99.90
22526;DHT22;11429;50.842;4.386;2023-02-28T05:04:33;2.20;99.90
22526;DHT22;11429;50.842;4.386;2023-02-28T05:07:00;2.20;99.90
22526;DHT22;11429;50.842;4.386;2023-02-28T05:09:26;2.20;99.90
22526;DHT22;11429;50.842;4.386;2023-02-28T05:11:52;2.30;99.90
22526;DHT22;11429;50.842;4.386;2023-02-28T05:14:18;2.20;99.90
22526;DHT22;11429;50.842;4.386;2023-02-28T05:16:43;2.30;99.90
22526;DHT22;11429;50.842;4.386;2023-02-28T05:19:09;2.30;99.90
22526;DHT22;11429;50.842;4.386;2023-02-28T05:21:56;2.30;99.90
22526;DHT22;11429;50.842;4.386;2023-02-28T05:24:21;2.20;99.90
22526;DHT22;11429;50.842;4.386;2023-02-28T05:26:52;2.10;99.90
22526;DHT22;11429;50.842;4.386;2023-02-28T05:29:18;2.30;99.90
22526;DHT22;11429;50.842;4.386;2023-02-28T05:31:44;2.20;99.90
22526;DHT22;11429;50.842;4.386;2023-02-28T05:34:10;2.30;99.90
22526;DHT22;11429;50.842;4.386;2023-02-28T05:36:38;2.10;99.90
22526;DHT22;11429;50.842;4.386;2023-02-28T05:39:05;2.20;99.90
22526;DHT22;11429;50.842;4.386;2023-02-28T05:41:31;2.10;99.90
22526;DHT22;11429;50.842;4.386;2023-02-28T05:43:57;2.20;99.90
22526;DHT22;11429;50.842;4.386;2023-02-28T05:46:23;2.30;99.90
22526;DHT22;11429;50.842;4.386;2023-02-28T05:48:49;2.20;99.90
22526;DHT22;11429;50.842;4.386;2023-02-28T05:51:16;2.30;99.90
22526;DHT22;11429;50.842;4.386;2023-02-28T05:53:42;2.40;99.90
22526;DHT22;11429;50.842;4.386;2023-02-28T05:56:08;2.40;99.90
22526;DHT22;11429;50.842;4.386;2023-02-28T05:58:33;2.50;99.90
22526;DHT22;11429;50.842;4.386;2023-02-28T06:01:18;2.50;99.90
22526;DHT22;11429;50.842;4.386;2023-02-28T06:03:44;2.40;99.90
22526;DHT22;11429;50.842;4.386;2023-02-28T06:06:10;2.10;99.90
22526;DHT22;11429;50.842;4.386;2023-02-28T06:08:35;2.00;99.90
22526;DHT22;11429;50.842;4.386;2023-02-28T06:11:03;2.00;99.90
22526;DHT22;11429;50.842;4.386;2023-02-28T06:13:29;2.00;99.90
22526;DHT22;11429;50.842;4.386;2023-02-28T06:15:55;2.30;99.90
22526;DHT22;11429;50.842;4.386;2023-02-28T06:18:20;2.70;99.90
22526;DHT22;11429;50.842;4.386;2023-02-28T06:20:55;2.60;99.90
22526;DHT22;11429;50.842;4.386;2023-02-28T06:23:22;2.70;99.90
22526;DHT22;11429;50.842;4.386;2023-02-28T06:25:47;2.60;99.90
22526;DHT22;11429;50.842;4.386;2023-02-28T06:28:14;2.70;99.90
22526;DHT22;11429;50.842;4.386;2023-02-28T06:30:40;2.70;99.90
22526;DHT22;11429;50.842;4.386;2023-02-28T06:33:06;2.50;99.90
22526;DHT22;11429;50.842;4.386;2023-02-28T06:35:32;2.70;99.90
22526;DHT22;11429;50.842;4.386;2023-02-28T06:37:58;2.80;99.90
22526;DHT22;11429;50.842;4.386;2023-02-28T06:40:23;2.80;99.90
22526;DHT22;11429;50.842;4.386;2023-02-28T06:42:49;2.80;99.90
22526;DHT22;11429;50.842;4.386;2023-02-28T06:45:15;2.90;99.90
22526;DHT22;11429;50.842;4.386;2023-02-28T06:47:41;2.90;99.90
22526;DHT22;11429;50.842;4.386;2023-02-28T06:50:09;2.80;99.90
22526;DHT22;11429;50.842;4.386;2023-02-28T06:52:36;2.60;99.90
22526;DHT22;11429;50.842;4.386;2023-02-28T06:55:07;2.40;99.90
22526;DHT22;11429;50.842;4.386;2023-02-28T06:57:35;2.60;99.90
22526;DHT22;11429;50.842;4.386;2023-02-28T07:00:06;2.70;99.90
22526;DHT22;11429;50.842;4.386;2023-02-28T07:02:34;2.80;99.90
22526;DHT22;11429;50.842;4.386;2023-02-28T07:05:00;2.80;99.90
22526;DHT22;11429;50.842;4.386;2023-02-28T07:07:25;2.60;99.90
22526;DHT22;11429;50.842;4.386;2023-02-28T07:09:51;2.80;99.90
22526;DHT22;11429;50.842;4.386;2023-02-28T07:12:18;3.10;99.90
22526;DHT22;11429;50.842;4.386;2023-02-28T07:14:43;3.10;99.90
22526;DHT22;11429;50.842;4.386;2023-02-28T07:17:10;3.20;99.90
22526;DHT22;11429;50.842;4.386;2023-02-28T07:19:38;3.30;99.90
22526;DHT22;11429;50.842;4.386;2023-02-28T07:22:06;3.30;99.90
22526;DHT22;11429;50.842;4.386;2023-02-28T07:24:32;3.40;99.90
22526;DHT22;11429;50.842;4.386;2023-02-28T07:26:58;3.20;99.90
22526;DHT22;11429;50.842;4.386;2023-02-28T07:29:25;3.50;99.90
22526;DHT22;11429;50.842;4.386;2023-02-28T07:31:50;3.70;99.90
22526;DHT22;11429;50.842;4.386;2023-02-28T07:34:19;3.40;99.90
22526;DHT22;11429;50.842;4.386;2023-02-28T07:36:45;3.50;99.90
22526;DHT22;11429;50.842;4.386;2023-02-28T07:39:11;3.70;99.90
22526;DHT22;11429;50.842;4.386;2023-02-28T07:41:36;3.90;99.90
22526;DHT22;11429;50.842;4.386;2023-02-28T07:44:09;4.10;99.90
22526;DHT22;11429;50.842;4.386;2023-02-28T07:46:35;4.30;99.90
22526;DHT22;11429;50.842;4.386;2023-02-28T07:49:01;4.20;99.90
22526;DHT22;11429;50.842;4.386;2023-02-28T07:51:29;4.10;99.90
22526;DHT22;11429;50.842;4.386;2023-02-28T07:53:55;3.90;99.90
22526;DHT22;11429;50.842;4.386;2023-02-28T07:56:21;3.90;99.90
22526;DHT22;11429;50.842;4.386;2023-02-28T07:58:47;3.80;99.90
22526;DHT22;11429;50.842;4.386;2023-02-28T08:01:13;3.70;99.90
22526;DHT22;11429;50.842;4.386;2023-02-28T08:03:39;3.80;99.90
22526;DHT22;11429;50.842;4.386;2023-02-28T08:06:06;4.30;99.90
22526;DHT22;11429;50.842;4.386;2023-02-28T08:08:32;4.70;99.90
22526;DHT22;11429;50.842;4.386;2023-02-28T08:11:00;4.50;99.90
22526;DHT22;11429;50.842;4.386;2023-02-28T08:13:27;4.30;99.90
22526;DHT22;11429;50.842;4.386;2023-02-28T08:15:53;4.30;99.90
22526;DHT22;11429;50.842;4.386;2023-02-28T08:18:20;4.20;99.90
22526;DHT22;11429;50.842;4.386;2023-02-28T08:20:46;4.40;99.90
22526;DHT22;11429;50.842;4.386;2023-02-28T08:23:12;4.70;99.90
22526;DHT22;11429;50.842;4.386;2023-02-28T08:25:38;4.70;99.90
22526;DHT22;11429;50.842;4.386;2023-02-28T08:28:04;4.40;99.90
22526;DHT22;11429;50.842;4.386;2023-02-28T08:30:29;4.60;99.90
22526;DHT22;11429;50.842;4.386;2023-02-28T08:32:55;4.60;99.90
22526;DHT22;11429;50.842;4.386;2023-02-28T08:35:21;4.60;99.90
22526;DHT22;11429;50.842;4.386;2023-02-28T08:37:48;4.60;99.90
22526;DHT22;11429;50.842;4.386;2023-02-28T08:40:14;4.50;99.90
22526;DHT22;11429;50.842;4.386;2023-02-28T08:42:44;4.40;99.90
22526;DHT22;11429;50.842;4.386;2023-02-28T08:45:11;4.40;99.90
22526;DHT22;11429;50.842;4.386;2023-02-28T08:47:37;4.40;99.90
22526;DHT22;11429;50.842;4.386;2023-02-28T08:50:04;4.30;99.90
22526;DHT22;11429;50.842;4.386;2023-02-28T08:52:30;4.20;99.90
22526;DHT22;11429;50.842;4.386;2023-02-28T08:54:56;4.20;99.90
22526;DHT22;11429;50.842;4.386;2023-02-28T08:57:21;4.10;99.90
22526;DHT22;11429;50.842;4.386;2023-02-28T08:59:47;4.20;99.90
22526;DHT22;11429;50.842;4.386;2023-02-28T09:02:14;4.40;99.90
22526;DHT22;11429;50.842;4.386;2023-02-28T09:04:40;4.40;99.90
22526;DHT22;11429;50.842;4.386;2023-02-28T09:07:07;4.50;99.90
22526;DHT22;11429;50.842;4.386;2023-02-28T09:09:33;4.40;99.90
22526;DHT22;11429;50.842;4.386;2023-02-28T09:11:59;4.30;99.90
22526;DHT22;11429;50.842;4.386;2023-02-28T09:14:24;4.50;99.90
22526;DHT22;11429;50.842;4.386;2023-02-28T09:16:50;4.80;99.90
22526;DHT22;11429;50.842;4.386;2023-02-28T09:19:15;5.00;99.90
22526;DHT22;11429;50.842;4.386;2023-02-28T09:21:41;5.10;99.90
22526;DHT22;11429;50.842;4.386;2023-02-28T09:24:07;5.10;99.90
22526;DHT22;11429;50.842;4.386;2023-02-28T09:26:33;4.70;99.90
22526;DHT22;11429;50.842;4.386;2023-02-28T09:29:00;4.70;99.90
22526;DHT22;11429;50.842;4.386;2023-02-28T09:31:27;5.20;99.90
22526;DHT22;11429;50.842;4.386;2023-02-28T09:33:56;5.80;99.90
22526;DHT22;11429;50.842;4.386;2023-02-28T09:36:23;6.00;99.90
22526;DHT22;11429;50.842;4.386;2023-02-28T09:38:49;5.60;99.90
22526;DHT22;11429;50.842;4.386;2023-02-28T09:41:25;5.30;99.90
22526;DHT22;11429;50.842;4.386;2023-02-28T09:43:56;5.10;99.90
22526;DHT22;11429;50.842;4.386;2023-02-28T09:46:42;5.20;99.90
22526;DHT22;11429;50.842;4.386;2023-02-28T09:49:37;5.10;99.90
22526;DHT22;11429;50.842;4.386;2023-02-28T09:52:12;5.00;99.90
22526;DHT22;11429;50.842;4.386;2023-02-28T09:54:38;5.20;99.90
22526;DHT22;11429;50.842;4.386;2023-02-28T10:00:18;6.30;99.90
22526;DHT22;11429;50.842;4.386;2023-02-28T10:03:04;6.60;99.90
22526;DHT22;11429;50.842;4.386;2023-02-28T10:08:14;7.80;99.90
22526;DHT22;11429;50.842;4.386;2023-02-28T10:10:47;9.50;99.90
22526;DHT22;11429;50.842;4.386;2023-02-28T10:13:36;10.70;99.90
22526;DHT22;11429;50.842;4.386;2023-02-28T10:16:14;11.00;99.90
22526;DHT22;11429;50.842;4.386;2023-02-28T10:18:47;12.20;99.90
22526;DHT22;11429;50.842;4.386;2023-02-28T10:21:21;12.60;99.60
22526;DHT22;11429;50.842;4.386;2023-02-28T10:23:48;12.90;97.50
22526;DHT22;11429;50.842;4.386;2023-02-28T10:26:17;12.60;97.20
22526;DHT22;11429;50.842;4.386;2023-02-28T10:28:43;12.10;97.70
22526;DHT22;11429;50.842;4.386;2023-02-28T10:31:17;12.70;97.10
22526;DHT22;11429;50.842;4.386;2023-02-28T10:33:43;13.30;94.90
22526;DHT22;11429;50.842;4.386;2023-02-28T10:36:17;12.80;93.40
22526;DHT22;11429;50.842;4.386;2023-02-28T10:38:45;13.10;93.20
22526;DHT22;11429;50.842;4.386;2023-02-28T10:41:18;13.00;92.70
22526;DHT22;11429;50.842;4.386;2023-02-28T10:43:52;11.80;92.80
22526;DHT22;11429;50.842;4.386;2023-02-28T10:46:19;12.00;92.70
22526;DHT22;11429;50.842;4.386;2023-02-28T10:49:02;12.00;92.40
22526;DHT22;11429;50.842;4.386;2023-02-28T10:51:36;12.30;92.90
22526;DHT22;11429;50.842;4.386;2023-02-28T10:54:03;12.30;92.60
22526;DHT22;11429;50.842;4.386;2023-02-28T10:56:29;13.00;91.70
22526;DHT22;11429;50.842;4.386;2023-02-28T11:06:43;12.40;90.40
22526;DHT22;11429;50.842;4.386;2023-02-28T11:11:49;12.70;91.20
22526;DHT22;11429;50.842;4.386;2023-02-28T11:14:28;13.10;88.90
22526;DHT22;11429;50.842;4.386;2023-02-28T11:16:58;11.30;91.00
22526;DHT22;11429;50.842;4.386;2023-02-28T11:19:30;11.20;92.80
22526;DHT22;11429;50.842;4.386;2023-02-28T11:22:01;11.30;92.50
22526;DHT22;11429;50.842;4.386;2023-02-28T11:24:29;11.70;91.30
22526;DHT22;11429;50.842;4.386;2023-02-28T11:26:56;12.10;90.70
22526;DHT22;11429;50.842;4.386;2023-02-28T11:29:24;11.50;90.80
22526;DHT22;11429;50.842;4.386;2023-02-28T11:32:23;11.50;91.30
22526;DHT22;11429;50.842;4.386;2023-02-28T11:37:35;10.60;92.00
22526;DHT22;11429;50.842;4.386;2023-02-28T11:40:02;10.60;92.60
22526;DHT22;11429;50.842;4.386;2023-02-28T11:53:05;11.90;91.40
22526;DHT22;11429;50.842;4.386;2023-02-28T11:55:52;12.30;91.80
22526;DHT22;11429;50.842;4.386;2023-02-28T12:04:17;10.80;92.30
22526;DHT22;11429;50.842;4.386;2023-02-28T12:06:52;9.50;93.20
22526;DHT22;11429;50.842;4.386;2023-02-28T12:17:50;10.10;92.50
22526;DHT22;11429;50.842;4.386;2023-02-28T12:23:00;10.00;91.50
22526;DHT22;11429;50.842;4.386;2023-02-28T12:28:12;9.30;92.50
22526;DHT22;11429;50.842;4.386;2023-02-28T12:30:46;8.60;92.80
22526;DHT22;11429;50.842;4.386;2023-02-28T12:33:16;8.70;93.20
22526;DHT22;11429;50.842;4.386;2023-02-28T12:35:58;8.60;93.30
22526;DHT22;11429;50.842;4.386;2023-02-28T12:38:45;8.10;93.70
22526;DHT22;11429;50.842;4.386;2023-02-28T12:44:09;8.40;93.60
22526;DHT22;11429;50.842;4.386;2023-02-28T12:46:46;8.70;93.30
22526;DHT22;11429;50.842;4.386;2023-02-28T12:52:08;8.70;93.70
22526;DHT22;11429;50.842;4.386;2023-02-28T12:54:51;8.60;92.70
22526;DHT22;11429;50.842;4.386;2023-02-28T12:59:57;7.60;93.70
22526;DHT22;11429;50.842;4.386;2023-02-28T13:02:47;7.60;94.20
22526;DHT22;11429;50.842;4.386;2023-02-28T13:10:56;7.40;94.40
22526;DHT22;11429;50.842;4.386;2023-02-28T13:13:27;7.30;94.20
22526;DHT22;11429;50.842;4.386;2023-02-28T13:18:31;7.00;94.80
22526;DHT22;11429;50.842;4.386;2023-02-28T13:20:58;7.10;94.90
22526;DHT22;11429;50.842;4.386;2023-02-28T13:26:21;7.00;95.40
22526;DHT22;11429;50.842;4.386;2023-02-28T13:29:21;6.90;95.10
22526;DHT22;11429;50.842;4.386;2023-02-28T13:34:32;6.70;95.40
22526;DHT22;11429;50.842;4.386;2023-02-28T13:42:33;7.10;95.00
22526;DHT22;11429;50.842;4.386;2023-02-28T13:55:48;6.60;95.70
22526;DHT22;11429;50.842;4.386;2023-02-28T13:58:41;6.50;95.10
22526;DHT22;11429;50.842;4.386;2023-02-28T14:06:40;6.60;94.90
22526;DHT22;11429;50.842;4.386;2023-02-28T14:09:31;6.70;95.00
22526;DHT22;11429;50.842;4.386;2023-02-28T14:15:03;6.50;95.00
22526;DHT22;11429;50.842;4.386;2023-02-28T14:17:31;6.40;95.90
22526;DHT22;11429;50.842;4.386;2023-02-28T14:19:57;6.50;95.60
22526;DHT22;11429;50.842;4.386;2023-02-28T14:22:54;6.50;95.40
22526;DHT22;11429;50.842;4.386;2023-02-28T14:28:50;6.50;96.00
22526;DHT22;11429;50.842;4.386;2023-02-28T14:31:38;6.60;95.50
22526;DHT22;11429;50.842;4.386;2023-02-28T14:34:48;6.60;95.70
22526;DHT22;11429;50.842;4.386;2023-02-28T14:37:15;6.40;95.50
22526;DHT22;11429;50.842;4.386;2023-02-28T14:39:43;6.20;96.20
22526;DHT22;11429;50.842;4.386;2023-02-28T14:42:54;6.20;96.60
22526;DHT22;11429;50.842;4.386;2023-02-28T14:45:21;6.20;96.10
22526;DHT22;11429;50.842;4.386;2023-02-28T14:47:49;6.20;95.90
22526;DHT22;11429;50.842;4.386;2023-02-28T14:50:26;6.10;96.60
22526;DHT22;11429;50.842;4.386;2023-02-28T14:52:55;6.10;96.50
22526;DHT22;11429;50.842;4.386;2023-02-28T14:55:29;6.10;96.60
22526;DHT22;11429;50.842;4.386;2023-02-28T14:58:06;6.10;97.30
22526;DHT22;11429;50.842;4.386;2023-02-28T15:00:34;6.40;97.20
22526;DHT22;11429;50.842;4.386;2023-02-28T15:03:11;6.20;96.90
22526;DHT22;11429;50.842;4.386;2023-02-28T15:05:51;6.00;97.00
22526;DHT22;11429;50.842;4.386;2023-02-28T15:08:17;6.10;97.00
22526;DHT22;11429;50.842;4.386;2023-02-28T15:11:00;6.30;97.50
22526;DHT22;11429;50.842;4.386;2023-02-28T15:13:46;6.20;97.30
22526;DHT22;11429;50.842;4.386;2023-02-28T15:16:17;6.00;97.40
22526;DHT22;11429;50.842;4.386;2023-02-28T15:19:00;5.90;97.50
22526;DHT22;11429;50.842;4.386;2023-02-28T15:21:36;6.00;97.80
22526;DHT22;11429;50.842;4.386;2023-02-28T15:26:42;6.40;97.50
22526;DHT22;11429;50.842;4.386;2023-02-28T15:29:19;6.30;97.80
22526;DHT22;11429;50.842;4.386;2023-02-28T15:31:55;6.40;98.00
22526;DHT22;11429;50.842;4.386;2023-02-28T15:37:01;6.30;97.80
22526;DHT22;11429;50.842;4.386;2023-02-28T15:39:28;6.10;98.30
22526;DHT22;11429;50.842;4.386;2023-02-28T15:42:11;6.20;98.40
22526;DHT22;11429;50.842;4.386;2023-02-28T15:44:37;6.20;97.90
22526;DHT22;11429;50.842;4.386;2023-02-28T15:47:24;6.10;98.20
22526;DHT22;11429;50.842;4.386;2023-02-28T15:49:59;6.00;98.30
22526;DHT22;11429;50.842;4.386;2023-02-28T15:52:39;6.00;98.40
22526;DHT22;11429;50.842;4.386;2023-02-28T15:57:35;6.00;98.70
22526;DHT22;11429;50.842;4.386;2023-02-28T16:00:02;6.10;98.60
22526;DHT22;11429;50.842;4.386;2023-02-28T16:02:37;6.00;98.70
22526;DHT22;11429;50.842;4.386;2023-02-28T16:07:39;6.10;98.50
22526;DHT22;11429;50.842;4.386;2023-02-28T16:13:28;5.80;99.10
22526;DHT22;11429;50.842;4.386;2023-02-28T16:15:54;5.90;99.20
22526;DHT22;11429;50.842;4.386;2023-02-28T16:18:19;6.00;99.20
22526;DHT22;11429;50.842;4.386;2023-02-28T16:20:45;6.00;99.10
22526;DHT22;11429;50.842;4.386;2023-02-28T16:23:11;6.10;98.80
22526;DHT22;11429;50.842;4.386;2023-02-28T16:25:40;5.80;99.30
22526;DHT22;11429;50.842;4.386;2023-02-28T16:28:15;5.90;99.50
22526;DHT22;11429;50.842;4.386;2023-02-28T16:30:43;6.10;99.60
22526;DHT22;11429;50.842;4.386;2023-02-28T16:33:09;6.10;99.70
22526;DHT22;11429;50.842;4.386;2023-02-28T16:35:35;6.00;99.90
22526;DHT22;11429;50.842;4.386;2023-02-28T16:38:00;6.20;99.90
22526;DHT22;11429;50.842;4.386;2023-02-28T16:40:26;6.00;99.60
22526;DHT22;11429;50.842;4.386;2023-02-28T16:42:57;6.00;99.80
22526;DHT22;11429;50.842;4.386;2023-02-28T16:45:26;5.80;99.90
22526;DHT22;11429;50.842;4.386;2023-02-28T16:47:53;5.90;99.70
22526;DHT22;11429;50.842;4.386;2023-02-28T16:50:21;5.80;99.90
22526;DHT22;11429;50.842;4.386;2023-02-28T16:52:48;5.90;99.90
22526;DHT22;11429;50.842;4.386;2023-02-28T16:55:15;6.00;99.90
22526;DHT22;11429;50.842;4.386;2023-02-28T16:57:43;5.90;99.90
22526;DHT22;11429;50.842;4.386;2023-02-28T17:00:12;6.00;99.90
22526;DHT22;11429;50.842;4.386;2023-02-28T17:02:38;5.80;99.90
22526;DHT22;11429;50.842;4.386;2023-02-28T17:05:05;5.70;99.90
22526;DHT22;11429;50.842;4.386;2023-02-28T17:07:31;5.60;99.90
22526;DHT22;11429;50.842;4.386;2023-02-28T17:09:57;5.60;99.90
22526;DHT22;11429;50.842;4.386;2023-02-28T17:12:23;5.70;99.90
22526;DHT22;11429;50.842;4.386;2023-02-28T17:14:49;5.50;99.90
22526;DHT22;11429;50.842;4.386;2023-02-28T17:17:20;5.40;99.90
22526;DHT22;11429;50.842;4.386;2023-02-28T17:19:47;5.70;99.90
22526;DHT22;11429;50.842;4.386;2023-02-28T17:22:13;5.70;99.90
22526;DHT22;11429;50.842;4.386;2023-02-28T17:24:39;5.60;99.90
22526;DHT22;11429;50.842;4.386;2023-02-28T17:27:05;5.50;99.90
22526;DHT22;11429;50.842;4.386;2023-02-28T17:29:31;5.40;99.90
22526;DHT22;11429;50.842;4.386;2023-02-28T17:31:57;5.50;99.90
22526;DHT22;11429;50.842;4.386;2023-02-28T17:34:22;5.50;99.90
22526;DHT22;11429;50.842;4.386;2023-02-28T17:36:49;5.60;99.90
22526;DHT22;11429;50.842;4.386;2023-02-28T17:39:16;5.50;99.90
22526;DHT22;11429;50.842;4.386;2023-02-28T17:41:53;5.30;99.90
22526;DHT22;11429;50.842;4.386;2023-02-28T17:44:19;5.20;99.90
22526;DHT22;11429;50.842;4.386;2023-02-28T17:46:46;5.20;99.90
22526;DHT22;11429;50.842;4.386;2023-02-28T17:49:12;5.40;99.90
22526;DHT22;11429;50.842;4.386;2023-02-28T17:51:37;5.70;99.90
22526;DHT22;11429;50.842;4.386;2023-02-28T17:54:03;5.60;99.90
22526;DHT22;11429;50.842;4.386;2023-02-28T17:56:29;5.60;99.90
22526;DHT22;11429;50.842;4.386;2023-02-28T17:58:56;5.60;99.90
22526;DHT22;11429;50.842;4.386;2023-02-28T18:01:23;5.50;99.90
22526;DHT22;11429;50.842;4.386;2023-02-28T18:03:50;5.50;99.90
22526;DHT22;11429;50.842;4.386;2023-02-28T18:06:20;5.70;99.90
22526;DHT22;11429;50.842;4.386;2023-02-28T18:08:46;5.30;99.90
22526;DHT22;11429;50.842;4.386;2023-02-28T18:11:12;5.20;99.90
22526;DHT22;11429;50.842;4.386;2023-02-28T18:13:52;5.40;99.90
22526;DHT22;11429;50.842;4.386;2023-02-28T18:16:20;5.60;99.90
22526;DHT22;11429;50.842;4.386;2023-02-28T18:18:46;5.50;99.90
22526;DHT22;11429;50.842;4.386;2023-02-28T18:21:14;5.30;99.90
22526;DHT22;11429;50.842;4.386;2023-02-28T18:23:40;5.40;99.90